createdAt,value
2018-10-07T00:00:57.098Z,12.96
2018-10-07T00:02:02.109Z,12.97
2018-10-07T00:03:06.529Z,12.97
2018-10-07T00:04:11.370Z,12.97
2018-10-07T00:05:15.942Z,12.97
2018-10-07T00:06:21.262Z,12.97
2018-10-07T00:07:25.771Z,12.94
2018-10-07T00:08:30.346Z,12.91
2018-10-07T00:09:35.332Z,12.87
2018-10-07T00:10:41.332Z,12.81
2018-10-07T00:11:46.745Z,12.75
2018-10-07T00:12:52.015Z,12.68
2018-10-07T00:13:56.986Z,12.66
2018-10-07T00:15:01.542Z,12.68
2018-10-07T00:16:06.271Z,12.63
2018-10-07T00:17:12.143Z,12.61
2018-10-07T00:18:16.666Z,12.63
2018-10-07T00:19:21.820Z,12.61
2018-10-07T00:20:26.798Z,12.49
2018-10-07T00:21:31.692Z,12.26
2018-10-07T00:22:37.380Z,12.28
2018-10-07T00:23:42.103Z,12.22
2018-10-07T00:24:46.623Z,12.18
2018-10-07T00:25:51.695Z,12.09
2018-10-07T00:26:56.648Z,12.03
2018-10-07T00:28:01.191Z,12.00
2018-10-07T00:29:05.977Z,12.03
2018-10-07T00:30:11.628Z,12.08
2018-10-07T00:31:16.523Z,12.13
2018-10-07T00:32:22.382Z,12.17
2018-10-07T00:33:27.504Z,12.15
2018-10-07T00:34:31.992Z,12.13
2018-10-07T00:35:36.593Z,12.17
2018-10-07T00:36:42.010Z,12.22
2018-10-07T00:37:46.781Z,12.25
2018-10-07T00:38:51.755Z,12.24
2018-10-07T00:39:56.555Z,12.16
2018-10-07T00:41:01.296Z,12.15
2018-10-07T00:42:05.936Z,12.17
2018-10-07T00:43:10.804Z,12.20
2018-10-07T00:44:17.204Z,12.20
2018-10-07T00:45:22.028Z,12.21
2018-10-07T00:46:27.071Z,12.21
2018-10-07T00:47:32.074Z,12.25
2018-10-07T00:48:37.134Z,12.25
2018-10-07T00:49:41.864Z,12.25
2018-10-07T00:50:46.364Z,12.14
2018-10-07T00:51:52.402Z,12.10
2018-10-07T00:52:57.967Z,12.09
2018-10-07T00:54:02.578Z,12.12
2018-10-07T00:55:07.293Z,12.14
2018-10-07T00:56:12.340Z,12.13
2018-10-07T00:57:17.353Z,12.12
2018-10-07T00:58:22.095Z,12.15
2018-10-07T00:59:27.310Z,12.16
2018-10-07T01:00:31.888Z,12.21
2018-10-07T01:01:36.557Z,12.18
2018-10-07T01:02:41.203Z,12.19
2018-10-07T01:03:45.807Z,12.20
2018-10-07T01:04:53.459Z,12.20
2018-10-07T01:05:58.115Z,12.21
2018-10-07T01:07:02.682Z,12.23
2018-10-07T01:08:07.509Z,12.23
2018-10-07T01:09:13.506Z,12.15
2018-10-07T01:10:18.925Z,12.15
2018-10-07T01:11:24.298Z,12.17
2018-10-07T01:12:29.513Z,12.13
2018-10-07T01:13:36.491Z,11.88
2018-10-07T01:14:42.042Z,11.51
2018-10-07T01:15:47.629Z,11.36
2018-10-07T01:16:52.421Z,11.25
2018-10-07T01:17:57.614Z,11.30
2018-10-07T01:19:02.173Z,11.41
2018-10-07T01:20:08.002Z,11.52
2018-10-07T01:21:13.559Z,11.62
2018-10-07T01:22:18.158Z,11.66
2018-10-07T01:23:22.883Z,11.62
2018-10-07T01:24:27.466Z,11.57
2018-10-07T01:25:31.875Z,11.58
2018-10-07T01:26:36.341Z,11.64
2018-10-07T01:27:40.948Z,11.66
2018-10-07T01:28:45.465Z,11.56
2018-10-07T01:29:50.289Z,11.39
2018-10-07T01:30:54.725Z,11.37
2018-10-07T01:31:59.259Z,11.40
2018-10-07T01:33:03.883Z,11.44
2018-10-07T01:34:08.365Z,11.35
2018-10-07T01:35:13.034Z,11.22
2018-10-07T01:36:18.086Z,11.08
2018-10-07T01:37:22.702Z,11.11
2018-10-07T01:38:27.141Z,11.16
2018-10-07T01:39:31.760Z,11.19
2018-10-07T01:40:36.242Z,11.28
2018-10-07T01:41:40.733Z,11.34
2018-10-07T01:42:45.900Z,11.41
2018-10-07T01:43:50.343Z,11.48
2018-10-07T01:45:07.541Z,11.49
2018-10-07T01:46:15.787Z,11.48
2018-10-07T01:47:20.327Z,11.47
2018-10-07T01:48:24.833Z,11.40
2018-10-07T01:49:29.845Z,11.38
2018-10-07T01:50:35.162Z,11.41
2018-10-07T01:51:39.713Z,11.41
2018-10-07T01:52:44.220Z,11.38
2018-10-07T01:53:48.707Z,11.34
2018-10-07T01:54:53.158Z,11.39
2018-10-07T01:55:58.532Z,11.42
2018-10-07T01:57:03.886Z,11.46
2018-10-07T01:58:08.701Z,11.48
2018-10-07T01:59:13.249Z,11.50
2018-10-07T02:00:19.063Z,11.49
2018-10-07T02:01:23.861Z,11.51
2018-10-07T02:02:31.433Z,11.58
2018-10-07T02:03:42.378Z,11.65
2018-10-07T02:04:48.061Z,11.64
2018-10-07T02:05:52.782Z,11.55
2018-10-07T02:06:57.371Z,11.15
2018-10-07T02:08:02.379Z,10.69
2018-10-07T02:09:08.197Z,10.43
2018-10-07T02:10:12.721Z,10.38
2018-10-07T02:11:18.620Z,10.40
2018-10-07T02:12:23.211Z,10.55
2018-10-07T02:13:27.695Z,10.58
2018-10-07T02:14:32.188Z,10.68
2018-10-07T02:15:37.770Z,10.80
2018-10-07T02:16:42.291Z,10.91
2018-10-07T02:17:46.834Z,10.96
2018-10-07T02:18:51.323Z,10.92
2018-10-07T02:19:55.805Z,10.85
2018-10-07T02:21:00.837Z,10.80
2018-10-07T02:22:06.704Z,10.81
2018-10-07T02:23:11.205Z,10.83
2018-10-07T02:24:15.822Z,10.88
2018-10-07T02:25:21.445Z,10.94
2018-10-07T02:26:25.983Z,10.98
2018-10-07T02:27:31.025Z,11.03
2018-10-07T02:28:36.058Z,11.10
2018-10-07T02:29:40.954Z,11.12
2018-10-07T02:30:45.971Z,11.02
2018-10-07T02:31:50.762Z,10.95
2018-10-07T02:32:56.159Z,10.98
2018-10-07T02:34:01.571Z,10.99
2018-10-07T02:35:07.033Z,11.02
2018-10-07T02:36:11.555Z,10.98
2018-10-07T02:37:17.147Z,10.99
2018-10-07T02:38:22.774Z,11.03
2018-10-07T02:39:27.266Z,11.04
2018-10-07T02:40:31.783Z,11.04
2018-10-07T02:41:36.714Z,11.08
2018-10-07T02:42:41.483Z,11.09
2018-10-07T02:43:46.096Z,11.04
2018-10-07T02:44:50.618Z,11.02
2018-10-07T02:45:55.095Z,10.97
2018-10-07T02:46:59.656Z,10.88
2018-10-07T02:48:04.538Z,10.82
2018-10-07T02:49:09.187Z,10.75
2018-10-07T02:50:14.999Z,10.72
2018-10-07T02:51:19.680Z,10.66
2018-10-07T02:52:29.430Z,10.66
2018-10-07T02:53:34.241Z,10.72
2018-10-07T02:54:40.196Z,10.83
2018-10-07T02:55:45.187Z,10.93
2018-10-07T02:56:49.698Z,11.02
2018-10-07T02:57:55.290Z,11.11
2018-10-07T02:59:00.403Z,11.16
2018-10-07T03:00:05.013Z,11.19
2018-10-07T03:01:09.791Z,11.24
2018-10-07T03:02:14.287Z,11.23
2018-10-07T03:03:18.774Z,10.97
2018-10-07T03:04:23.257Z,10.80
2018-10-07T03:05:27.741Z,10.82
2018-10-07T03:06:32.237Z,10.90
2018-10-07T03:07:37.026Z,10.83
2018-10-07T03:08:41.644Z,10.78
2018-10-07T03:09:46.630Z,10.85
2018-10-07T03:10:51.412Z,10.87
2018-10-07T03:11:56.226Z,10.85
2018-10-07T03:13:01.112Z,10.86
2018-10-07T03:14:05.947Z,10.90
2018-10-07T03:15:10.538Z,10.90
2018-10-07T03:16:15.040Z,10.96
2018-10-07T03:17:19.556Z,11.00
2018-10-07T03:18:24.056Z,11.02
2018-10-07T03:19:28.685Z,11.01
2018-10-07T03:20:33.584Z,10.99
2018-10-07T03:21:38.407Z,10.96
2018-10-07T03:22:42.906Z,10.93
2018-10-07T03:23:47.674Z,10.94
2018-10-07T03:24:52.398Z,10.95
2018-10-07T03:25:57.064Z,10.96
2018-10-07T03:27:01.525Z,10.96
2018-10-07T03:28:06.083Z,11.00
2018-10-07T03:29:10.612Z,11.03
2018-10-07T03:30:15.346Z,11.07
2018-10-07T03:31:20.046Z,11.05
2018-10-07T03:32:24.867Z,11.07
2018-10-07T03:33:30.555Z,11.10
2018-10-07T03:34:35.049Z,11.07
2018-10-07T03:35:39.625Z,11.05
2018-10-07T03:36:44.146Z,11.01
2018-10-07T03:37:49.596Z,10.95
2018-10-07T03:38:54.274Z,10.95
2018-10-07T03:39:59.208Z,10.94
2018-10-07T03:41:04.764Z,10.96
2018-10-07T03:42:09.357Z,10.99
2018-10-07T03:43:13.925Z,11.00
2018-10-07T03:44:18.506Z,10.99
2018-10-07T03:45:23.046Z,10.97
2018-10-07T03:46:28.486Z,10.99
2018-10-07T03:47:33.106Z,11.01
2018-10-07T03:48:37.610Z,11.02
2018-10-07T03:49:42.894Z,11.02
2018-10-07T03:50:48.080Z,11.00
2018-10-07T03:51:53.187Z,10.97
2018-10-07T03:52:57.991Z,10.87
2018-10-07T03:54:02.493Z,10.82
2018-10-07T03:55:06.969Z,10.83
2018-10-07T03:56:11.966Z,10.85
2018-10-07T03:57:16.728Z,10.86
2018-10-07T03:58:21.222Z,10.88
2018-10-07T03:59:26.474Z,10.91
2018-10-07T04:00:31.068Z,10.97
2018-10-07T04:01:35.733Z,11.00
2018-10-07T04:02:40.273Z,11.00
2018-10-07T04:03:44.837Z,11.00
2018-10-07T04:04:49.341Z,11.02
2018-10-07T04:05:54.142Z,11.02
2018-10-07T04:06:58.635Z,11.05
2018-10-07T04:08:03.120Z,11.10
2018-10-07T04:09:08.653Z,11.14
2018-10-07T04:10:13.196Z,11.16
2018-10-07T04:11:17.682Z,11.20
2018-10-07T04:12:22.458Z,11.23
2018-10-07T04:13:26.981Z,11.28
2018-10-07T04:14:31.482Z,11.31
2018-10-07T04:15:35.985Z,11.34
2018-10-07T04:16:40.473Z,11.39
2018-10-07T04:17:44.940Z,11.41
2018-10-07T04:18:49.753Z,11.42
2018-10-07T04:19:54.270Z,11.42
2018-10-07T04:20:58.828Z,11.42
2018-10-07T04:22:03.686Z,11.45
2018-10-07T04:23:08.203Z,11.49
2018-10-07T04:24:12.811Z,11.53
2018-10-07T04:25:17.847Z,11.56
2018-10-07T04:26:23.243Z,11.60
2018-10-07T04:27:28.051Z,11.65
2018-10-07T04:28:33.098Z,11.67
2018-10-07T04:29:38.171Z,11.72
2018-10-07T04:30:42.974Z,11.78
2018-10-07T04:31:48.231Z,11.80
2018-10-07T04:32:53.694Z,11.78
2018-10-07T04:33:59.092Z,11.79
2018-10-07T04:35:03.639Z,11.75
2018-10-07T04:36:08.139Z,11.75
2018-10-07T04:37:13.659Z,11.77
2018-10-07T04:38:19.187Z,11.77
2018-10-07T04:39:23.689Z,11.79
2018-10-07T04:40:28.223Z,11.80
2018-10-07T04:41:32.743Z,11.77
2018-10-07T04:42:38.509Z,11.79
2018-10-07T04:43:43.010Z,11.83
2018-10-07T04:44:47.814Z,11.85
2018-10-07T04:45:52.290Z,11.87
2018-10-07T04:46:57.298Z,11.90
2018-10-07T04:48:01.890Z,11.93
2018-10-07T04:49:06.431Z,11.94
2018-10-07T04:50:11.179Z,11.98
2018-10-07T04:51:15.674Z,12.00
2018-10-07T04:52:20.277Z,12.02
2018-10-07T04:53:24.757Z,12.06
2018-10-07T04:54:29.298Z,12.06
2018-10-07T04:55:33.843Z,12.08
2018-10-07T04:56:39.265Z,12.11
2018-10-07T04:57:43.809Z,12.13
2018-10-07T04:58:48.349Z,12.16
2018-10-07T04:59:55.083Z,12.17
2018-10-07T05:01:00.487Z,12.21
2018-10-07T05:02:04.996Z,12.22
2018-10-07T05:03:11.735Z,12.24
2018-10-07T05:04:17.343Z,12.27
2018-10-07T05:05:22.197Z,12.29
2018-10-07T05:06:27.953Z,12.30
2018-10-07T05:07:33.223Z,12.31
2018-10-07T05:08:37.853Z,12.31
2018-10-07T05:09:42.956Z,12.30
2018-10-07T05:10:50.174Z,12.30
2018-10-07T05:11:57.017Z,12.31
2018-10-07T05:13:01.588Z,12.31
2018-10-07T05:14:06.953Z,12.32
2018-10-07T05:15:11.851Z,12.34
2018-10-07T05:16:22.270Z,12.37
2018-10-07T05:17:26.753Z,12.35
2018-10-07T05:18:32.118Z,12.35
2018-10-07T05:19:37.726Z,12.32
2018-10-07T05:20:42.221Z,12.33
2018-10-07T05:21:46.855Z,12.35
2018-10-07T05:22:53.209Z,12.30
2018-10-07T05:23:58.237Z,12.31
2018-10-07T05:25:03.664Z,12.33
2018-10-07T05:26:08.181Z,12.34
2018-10-07T05:27:12.651Z,12.34
2018-10-07T05:28:17.445Z,12.37
2018-10-07T05:29:22.234Z,12.39
2018-10-07T05:30:26.832Z,12.37
2018-10-07T05:44:45.203Z,12.46
2018-10-07T05:45:49.737Z,12.48
2018-10-07T05:46:54.247Z,12.49
2018-10-07T05:47:58.794Z,12.47
2018-10-07T05:49:03.389Z,12.44
2018-10-07T05:50:08.184Z,12.45
2018-10-07T05:51:12.807Z,12.47
2018-10-07T05:52:17.407Z,12.48
2018-10-07T05:53:21.943Z,12.53
2018-10-07T05:54:26.722Z,12.55
2018-10-07T05:55:32.080Z,12.58
2018-10-07T05:56:36.962Z,12.53
2018-10-07T05:57:42.601Z,12.53
2018-10-07T05:58:47.193Z,12.53
2018-10-07T05:59:51.885Z,12.56
2018-10-07T06:00:57.549Z,12.58
2018-10-07T06:02:02.788Z,12.57
2018-10-07T06:03:13.925Z,12.57
2018-10-07T06:04:27.880Z,12.60
2018-10-07T06:05:35.140Z,12.55
2018-10-07T06:06:39.769Z,12.52
2018-10-07T06:07:44.406Z,12.52
2018-10-07T06:08:48.963Z,12.56
2018-10-07T06:09:53.850Z,12.56
2018-10-07T06:10:58.373Z,12.63
2018-10-07T06:12:02.855Z,12.62
2018-10-07T06:13:07.366Z,12.70
2018-10-07T06:14:22.378Z,12.72
2018-10-07T06:17:22.712Z,12.70
2018-10-07T06:18:27.324Z,12.68
2018-10-07T06:19:32.872Z,12.71
2018-10-07T06:20:38.959Z,12.80
2018-10-07T06:21:46.454Z,12.90
2018-10-07T06:22:50.972Z,13.00
2018-10-07T06:23:55.458Z,13.11
2018-10-07T06:24:59.972Z,13.14
2018-10-07T06:26:04.474Z,13.14
2018-10-07T06:27:09.645Z,13.11
2018-10-07T06:28:14.426Z,13.09
2018-10-07T06:29:20.561Z,13.06
2018-10-07T06:30:25.409Z,13.00
2018-10-07T06:31:29.921Z,12.95
2018-10-07T06:32:35.191Z,12.94
2018-10-07T06:33:39.686Z,12.92
2018-10-07T06:34:44.634Z,12.92
2018-10-07T06:35:49.326Z,12.88
2018-10-07T06:36:54.214Z,12.89
2018-10-07T06:37:58.838Z,12.88
2018-10-07T06:39:03.499Z,12.89
2018-10-07T06:40:08.238Z,12.92
2018-10-07T06:41:13.173Z,12.91
2018-10-07T06:42:17.895Z,12.92
2018-10-07T06:43:22.674Z,12.92
2018-10-07T06:44:28.028Z,12.91
2018-10-07T06:45:32.629Z,12.89
2018-10-07T06:46:37.317Z,12.92
2018-10-07T06:47:42.285Z,12.90
2018-10-07T06:48:46.836Z,12.89
2018-10-07T06:49:51.507Z,12.91
2018-10-07T06:50:56.042Z,12.89
2018-10-07T06:52:00.608Z,12.90
2018-10-07T06:53:05.506Z,12.91
2018-10-07T06:54:11.289Z,12.89
2018-10-07T06:55:16.233Z,12.91
2018-10-07T06:56:21.082Z,12.93
2018-10-07T06:57:25.772Z,12.91
2018-10-07T06:58:30.332Z,12.88
2018-10-07T06:59:35.072Z,12.81
2018-10-07T07:00:41.818Z,12.78
2018-10-07T07:01:46.317Z,12.77
2018-10-07T07:02:52.307Z,12.79
2018-10-07T07:03:57.231Z,12.81
2018-10-07T07:05:01.881Z,12.81
2018-10-07T07:06:09.834Z,12.82
2018-10-07T07:07:15.324Z,12.81
2018-10-07T07:08:20.446Z,12.79
2018-10-07T07:09:25.683Z,12.78
2018-10-07T07:10:30.174Z,12.74
2018-10-07T07:11:34.802Z,12.70
2018-10-07T07:12:40.598Z,12.64
2018-10-07T07:13:46.442Z,12.66
2018-10-07T07:14:50.956Z,12.71
2018-10-07T07:15:55.581Z,12.72
2018-10-07T07:17:00.456Z,12.63
2018-10-07T07:18:05.243Z,12.59
2018-10-07T07:19:10.013Z,12.61
2018-10-07T07:20:15.083Z,12.62
2018-10-07T07:21:19.799Z,12.64
2018-10-07T07:22:24.537Z,12.65
2018-10-07T07:23:29.239Z,12.69
2018-10-07T07:24:34.086Z,12.70
2018-10-07T07:25:39.794Z,12.72
2018-10-07T07:26:45.572Z,12.75
2018-10-07T07:27:50.297Z,12.75
2018-10-07T07:28:54.967Z,12.76
2018-10-07T07:29:59.857Z,12.72
2018-10-07T07:31:04.725Z,12.59
2018-10-07T07:32:11.982Z,12.53
2018-10-07T07:33:17.133Z,12.48
2018-10-07T07:34:37.994Z,12.48
2018-10-07T07:35:42.654Z,12.47
2018-10-07T07:36:47.654Z,12.46
2018-10-07T07:37:54.489Z,12.39
2018-10-07T07:38:59.357Z,12.37
2018-10-07T07:40:05.052Z,12.33
2018-10-07T07:41:11.241Z,12.22
2018-10-07T07:42:16.035Z,12.16
2018-10-07T07:43:20.930Z,11.96
2018-10-07T07:44:27.606Z,11.92
2018-10-07T07:45:33.045Z,11.87
2018-10-07T07:46:37.907Z,11.83
2018-10-07T07:47:43.412Z,11.87
2018-10-07T07:48:48.169Z,11.85
2018-10-07T07:49:52.808Z,11.80
2018-10-07T07:50:59.081Z,11.78
2018-10-07T07:52:04.218Z,11.61
2018-10-07T07:53:09.426Z,11.60
2018-10-07T07:54:13.982Z,11.62
2018-10-07T07:55:19.086Z,11.65
2018-10-07T07:56:23.696Z,11.68
2018-10-07T07:57:28.221Z,11.59
2018-10-07T07:58:33.653Z,11.58
2018-10-07T07:59:38.169Z,11.56
2018-10-07T08:00:42.713Z,11.58
2018-10-07T08:01:47.166Z,11.49
2018-10-07T08:02:51.929Z,11.38
2018-10-07T08:03:56.608Z,11.31
2018-10-07T08:05:01.553Z,11.25
2018-10-07T08:06:07.055Z,11.21
2018-10-07T08:07:12.172Z,11.25
2018-10-07T08:08:17.770Z,11.23
2018-10-07T08:09:23.813Z,11.22
2018-10-07T08:10:29.754Z,11.26
2018-10-07T08:11:34.665Z,11.28
2018-10-07T08:12:40.140Z,11.28
2018-10-07T08:13:45.518Z,11.32
2018-10-07T08:14:50.143Z,11.25
2018-10-07T08:15:55.294Z,11.30
2018-10-07T08:16:59.846Z,11.30
2018-10-07T08:18:05.417Z,11.28
2018-10-07T08:19:09.970Z,11.27
2018-10-07T08:20:14.645Z,11.30
2018-10-07T08:21:23.139Z,11.28
2018-10-07T08:22:28.096Z,11.28
2018-10-07T08:23:32.943Z,11.33
2018-10-07T08:24:38.576Z,11.26
2018-10-07T08:25:43.375Z,11.28
2018-10-07T08:26:47.966Z,11.24
2018-10-07T08:27:53.582Z,11.25
2018-10-07T08:28:58.347Z,11.21
2018-10-07T08:30:03.289Z,11.22
2018-10-07T08:31:09.271Z,11.28
2018-10-07T08:32:13.806Z,11.11
2018-10-07T08:33:18.537Z,11.18
2018-10-07T08:34:23.427Z,11.25
2018-10-07T08:35:29.039Z,11.30
2018-10-07T08:36:35.892Z,11.26
2018-10-07T08:37:41.431Z,11.13
2018-10-07T08:38:47.307Z,11.14
2018-10-07T08:39:52.073Z,11.17
2018-10-07T08:40:59.686Z,11.26
2018-10-07T08:42:06.614Z,11.31
2018-10-07T08:43:11.866Z,11.35
2018-10-07T08:44:16.766Z,11.44
2018-10-07T08:45:21.417Z,11.52
2018-10-07T08:46:26.059Z,11.50
2018-10-07T08:47:30.609Z,11.40
2018-10-07T08:48:36.837Z,11.36
2018-10-07T08:49:41.600Z,11.30
2018-10-07T08:50:46.492Z,11.27
2018-10-07T08:51:51.923Z,11.27
2018-10-07T08:52:56.453Z,11.18
2018-10-07T08:54:00.979Z,11.20
2018-10-07T08:55:05.601Z,11.21
2018-10-07T08:56:10.259Z,11.21
2018-10-07T08:57:15.098Z,11.13
2018-10-07T08:58:20.020Z,11.14
2018-10-07T08:59:24.645Z,11.08
2018-10-07T09:00:30.396Z,10.83
2018-10-07T09:01:35.510Z,10.80
2018-10-07T09:02:41.154Z,10.87
2018-10-07T09:03:46.617Z,11.01
2018-10-07T09:04:54.042Z,11.19
2018-10-07T09:05:59.838Z,11.22
2018-10-07T09:07:04.443Z,11.31
2018-10-07T09:08:09.301Z,11.35
2018-10-07T09:09:15.813Z,11.29
2018-10-07T09:10:20.677Z,11.34
2018-10-07T09:11:25.872Z,11.28
2018-10-07T09:12:31.037Z,11.37
2018-10-07T09:13:36.906Z,11.40
2018-10-07T09:14:41.995Z,11.43
2018-10-07T09:15:50.701Z,11.42
2018-10-07T09:16:56.596Z,11.44
2018-10-07T09:18:05.479Z,11.50
2018-10-07T09:19:12.275Z,11.65
2018-10-07T09:20:17.811Z,11.57
2018-10-07T09:21:23.365Z,11.66
2018-10-07T09:22:30.381Z,11.76
2018-10-07T09:23:39.763Z,11.82
2018-10-07T09:24:44.589Z,11.93
2018-10-07T09:25:50.516Z,12.04
2018-10-07T09:26:55.834Z,12.18
2018-10-07T09:28:01.841Z,12.32
2018-10-07T09:29:07.485Z,12.42
2018-10-07T09:30:13.635Z,12.46
2018-10-07T09:31:18.828Z,12.48
2018-10-07T09:32:23.890Z,12.47
2018-10-07T09:33:30.549Z,12.39
2018-10-07T09:34:35.599Z,12.37
2018-10-07T09:35:40.913Z,12.22
2018-10-07T09:36:49.142Z,12.31
2018-10-07T09:37:55.707Z,12.53
2018-10-07T09:39:00.823Z,12.65
2018-10-07T09:40:05.527Z,12.88
2018-10-07T09:41:10.277Z,12.94
2018-10-07T09:42:14.896Z,12.80
2018-10-07T09:43:19.535Z,12.82
2018-10-07T09:44:24.350Z,12.71
2018-10-07T09:45:29.560Z,12.81
2018-10-07T09:46:34.268Z,12.85
2018-10-07T09:47:40.405Z,12.62
2018-10-07T09:48:45.094Z,12.63
2018-10-07T09:49:49.797Z,12.61
2018-10-07T09:50:55.411Z,12.71
2018-10-07T09:52:00.462Z,12.80
2018-10-07T09:53:05.124Z,12.96
2018-10-07T09:54:10.063Z,12.91
2018-10-07T09:55:15.110Z,13.07
2018-10-07T09:56:19.801Z,13.26
2018-10-07T09:57:24.706Z,13.16
2018-10-07T09:58:30.495Z,13.42
2018-10-07T09:59:36.025Z,14.38
2018-10-07T10:00:41.660Z,14.68
2018-10-07T10:01:48.025Z,14.59
2018-10-07T10:02:53.270Z,14.83
2018-10-07T10:03:59.170Z,15.33
2018-10-07T10:05:04.014Z,15.87
2018-10-07T10:06:09.349Z,15.92
2018-10-07T10:07:13.991Z,17.45
2018-10-07T10:08:18.588Z,18.42
2018-10-07T10:09:25.927Z,18.82
2018-10-07T10:10:31.956Z,18.02
2018-10-07T10:11:37.912Z,18.33
2018-10-07T10:12:43.267Z,20.38
2018-10-07T10:13:48.102Z,21.47
2018-10-07T10:14:55.447Z,21.55
2018-10-07T10:16:00.046Z,19.94
2018-10-07T10:17:10.729Z,18.51
2018-10-07T10:18:18.110Z,17.52
2018-10-07T10:19:23.141Z,18.12
2018-10-07T10:20:30.369Z,19.14
2018-10-07T10:21:36.273Z,19.93
2018-10-07T10:22:48.125Z,21.57
2018-10-07T10:23:55.037Z,21.12
2018-10-07T10:25:02.005Z,20.28
2018-10-07T10:26:08.693Z,19.68
2018-10-07T10:27:23.646Z,19.35
2018-10-07T10:28:36.001Z,18.34
2018-10-07T10:29:46.329Z,17.82
2018-10-07T10:30:52.562Z,17.73
2018-10-07T10:54:36.812Z,17.25
2018-10-07T15:44:00.642Z,17.17
2018-10-07T15:45:05.338Z,18.57
2018-10-07T15:46:10.701Z,18.44
2018-10-07T15:47:15.405Z,18.30
2018-10-07T15:48:20.125Z,18.24
2018-10-07T15:49:25.398Z,18.10
2018-10-07T15:50:30.631Z,17.92
2018-10-07T15:51:36.824Z,17.73
2018-10-07T15:52:42.641Z,17.72
2018-10-07T15:53:48.010Z,17.64
2018-10-07T15:54:52.714Z,17.57
2018-10-07T15:55:58.019Z,17.39
2018-10-07T15:57:03.334Z,17.36
2018-10-07T15:58:10.103Z,17.28
2018-10-07T15:59:15.244Z,17.06
2018-10-07T16:00:20.607Z,16.96
2018-10-07T16:01:26.857Z,16.95
2018-10-07T16:02:32.858Z,16.84
2018-10-07T16:03:38.118Z,16.72
2018-10-07T16:04:42.678Z,16.77
2018-10-07T16:05:48.351Z,16.93
2018-10-07T16:06:56.675Z,16.91
2018-10-07T16:08:03.361Z,16.88
2018-10-07T16:09:11.334Z,16.87
2018-10-07T16:10:17.241Z,17.00
2018-10-07T16:11:25.207Z,17.10
2018-10-07T16:12:30.267Z,17.15
2018-10-07T16:13:36.276Z,17.22
2018-10-07T16:14:41.493Z,17.23
2018-10-07T16:15:46.653Z,17.08
2018-10-07T16:16:52.035Z,17.05
2018-10-07T16:17:57.370Z,17.06
2018-10-07T16:19:01.868Z,16.93
2018-10-07T16:20:10.677Z,16.86
2018-10-07T16:21:15.998Z,16.76
2018-10-07T16:22:21.113Z,16.65
2018-10-07T16:23:26.857Z,16.53
2018-10-07T16:24:32.953Z,16.36
2018-10-07T16:25:38.328Z,16.36
2018-10-07T16:26:43.140Z,16.34
2018-10-07T16:27:49.366Z,16.11
2018-10-07T16:28:55.081Z,15.93
2018-10-07T16:30:00.584Z,15.67
2018-10-07T16:31:05.245Z,15.70
2018-10-07T16:44:13.862Z,14.62
2018-10-07T16:45:20.032Z,14.50
2018-10-07T16:46:29.242Z,14.17
2018-10-07T16:47:35.563Z,13.97
2018-10-07T16:48:42.207Z,14.07
2018-10-07T16:49:51.507Z,14.12
2018-10-07T16:50:58.973Z,14.14
2018-10-07T16:52:04.346Z,14.01
2018-10-07T16:53:11.283Z,14.00
2018-10-07T16:54:19.383Z,14.00
2018-10-07T16:55:25.864Z,14.05
2018-10-07T16:56:39.766Z,13.98
2018-10-07T16:57:48.730Z,13.90
2018-10-07T16:58:54.588Z,13.87
2018-10-07T17:00:01.154Z,13.72
2018-10-07T17:01:07.298Z,13.69
2018-10-07T17:02:12.726Z,13.51
2018-10-07T17:03:18.254Z,13.35
2018-10-07T17:04:22.761Z,13.25
2018-10-07T17:05:28.154Z,13.16
2018-10-07T17:06:32.726Z,13.13
2018-10-07T17:07:38.512Z,13.26
2018-10-07T17:08:43.464Z,13.30
2018-10-07T17:09:49.140Z,13.26
2018-10-07T17:10:55.137Z,13.14
2018-10-07T17:11:59.671Z,13.00
2018-10-07T17:13:04.760Z,12.85
2018-10-07T17:14:11.520Z,12.93
2018-10-07T17:15:16.556Z,13.03
2018-10-07T17:16:22.112Z,12.78
2018-10-07T17:17:28.450Z,12.71
2018-10-07T17:18:35.374Z,12.87
2018-10-07T17:19:40.576Z,12.89
2018-10-07T17:20:50.650Z,12.97
2018-10-07T17:21:55.816Z,13.01
2018-10-07T17:23:06.929Z,13.10
2018-10-07T17:24:12.577Z,13.15
2018-10-07T17:25:20.641Z,13.04
2018-10-07T17:26:28.039Z,13.01
2018-10-07T17:27:36.303Z,13.09
2018-10-07T17:28:42.019Z,13.23
2018-10-07T17:29:48.410Z,13.21
2018-10-07T17:30:54.715Z,13.22
2018-10-07T17:31:59.641Z,13.20
2018-10-07T17:33:07.370Z,13.23
2018-10-07T17:34:16.036Z,13.29
2018-10-07T17:35:22.582Z,13.33
2018-10-07T17:36:27.399Z,13.32
2018-10-07T17:37:34.645Z,13.31
2018-10-07T17:38:40.852Z,13.25
2018-10-07T17:39:47.297Z,13.26
2018-10-07T17:40:55.887Z,13.23
2018-10-07T17:42:00.846Z,13.25
2018-10-07T17:43:06.203Z,13.27
2018-10-07T17:44:12.346Z,13.29
2018-10-07T17:45:17.737Z,13.34
2018-10-07T17:46:25.098Z,13.36
2018-10-07T17:47:40.770Z,13.34
2018-10-07T17:48:46.876Z,13.36
2018-10-07T17:49:54.638Z,13.33
2018-10-07T17:51:00.636Z,13.29
2018-10-07T17:52:06.376Z,13.24
2018-10-07T17:53:12.363Z,13.01
2018-10-07T17:54:22.253Z,12.76
2018-10-07T17:55:27.982Z,12.66
2018-10-07T17:56:35.371Z,12.60
2018-10-07T17:57:42.814Z,12.55
2018-10-07T17:58:47.554Z,12.65
2018-10-07T17:59:57.815Z,12.67
2018-10-07T18:01:02.371Z,12.68
2018-10-07T18:02:07.540Z,12.70
2018-10-07T18:03:14.538Z,12.70
2018-10-07T18:04:19.342Z,12.82
2018-10-07T18:05:23.888Z,12.94
2018-10-07T18:06:31.331Z,13.00
2018-10-07T18:07:36.397Z,12.93
2018-10-07T18:08:42.390Z,12.91
2018-10-07T18:09:51.679Z,12.92
2018-10-07T18:10:56.227Z,12.95
2018-10-07T18:12:03.705Z,12.97
2018-10-07T18:13:11.784Z,13.01
2018-10-07T18:14:17.400Z,12.94
2018-10-07T18:15:22.774Z,12.88
2018-10-07T18:16:28.814Z,12.82
2018-10-07T18:17:33.319Z,12.79
2018-10-07T18:18:37.840Z,12.73
2018-10-07T18:19:42.796Z,12.74
2018-10-07T18:20:49.242Z,12.74
2018-10-07T18:21:53.872Z,12.78
2018-10-07T18:22:59.608Z,12.81
2018-10-07T18:24:06.274Z,12.81
2018-10-07T18:25:12.448Z,12.78
2018-10-07T18:26:18.713Z,12.66
2018-10-07T18:27:25.306Z,12.65
2018-10-07T18:28:29.782Z,12.58
2018-10-07T18:29:35.455Z,12.50
2018-10-07T18:30:41.214Z,12.50
2018-10-07T18:31:46.994Z,12.45
2018-10-07T18:32:53.393Z,12.45
2018-10-07T18:33:57.997Z,12.50
2018-10-07T18:35:03.361Z,12.47
2018-10-07T18:36:08.781Z,12.47
2018-10-07T18:37:16.330Z,12.45
2018-10-07T18:38:21.469Z,12.45
2018-10-07T18:39:27.190Z,12.46
2018-10-07T18:40:32.452Z,12.51
2018-10-07T18:41:37.381Z,12.53
2018-10-07T18:42:42.783Z,12.45
2018-10-07T18:43:50.485Z,12.29
2018-10-07T18:44:55.105Z,12.31
2018-10-07T18:46:01.406Z,12.30
2018-10-07T18:47:06.570Z,12.32
2018-10-07T18:48:11.204Z,12.25
2018-10-07T18:49:16.344Z,12.12
2018-10-07T18:50:20.867Z,12.07
2018-10-07T18:51:26.282Z,11.93
2018-10-07T18:52:32.378Z,11.80
2018-10-07T18:53:37.824Z,11.64
2018-10-07T18:54:45.000Z,11.57
2018-10-07T18:55:50.631Z,11.51
2018-10-07T18:56:56.389Z,11.46
2018-10-07T18:58:01.653Z,11.50
2018-10-07T18:59:08.245Z,11.61
2018-10-07T19:00:12.802Z,11.69
2018-10-07T19:01:17.321Z,11.75
2018-10-07T19:02:27.131Z,11.73
2018-10-07T19:03:32.363Z,11.74
2018-10-07T19:04:44.988Z,11.74
2018-10-07T19:05:51.233Z,11.65
2018-10-07T19:06:57.370Z,11.60
2018-10-07T19:08:02.518Z,11.55
2018-10-07T19:09:10.340Z,11.59
2018-10-07T19:10:16.534Z,11.57
2018-10-07T19:11:25.760Z,11.59
2018-10-07T19:13:43.571Z,11.52
2018-10-07T19:14:51.502Z,11.38
2018-10-07T19:15:56.041Z,11.33
2018-10-07T19:17:02.573Z,11.28
2018-10-07T19:18:08.034Z,11.25
2018-10-07T19:19:13.393Z,11.23
2018-10-07T19:20:18.714Z,11.25
2018-10-07T19:21:24.535Z,11.28
2018-10-07T19:22:31.281Z,11.34
2018-10-07T19:23:36.716Z,11.42
2018-10-07T19:24:42.751Z,11.48
2018-10-07T19:25:48.787Z,11.52
2018-10-07T19:26:53.302Z,11.58
2018-10-07T19:27:57.782Z,11.59
2018-10-07T19:29:04.529Z,11.57
2018-10-07T19:30:10.701Z,11.57
2018-10-07T19:31:16.617Z,11.58
2018-10-07T19:32:22.947Z,11.61
2018-10-07T19:33:28.178Z,11.54
2018-10-07T19:34:34.688Z,11.50
2018-10-07T19:35:41.132Z,11.43
2018-10-07T19:36:48.071Z,11.42
2018-10-07T19:37:54.103Z,11.44
2018-10-07T19:38:58.717Z,11.44
2018-10-07T19:40:05.489Z,11.47
2018-10-07T19:41:10.014Z,11.50
2018-10-07T19:42:16.657Z,11.55
2018-10-07T19:43:23.286Z,11.57